Time;durP1;ratioP1;P1;durP2;ratioP2;P2;SDS_P1;SDS_P2;PMS_P1;PMS_P2;Temp;Humidity;BMP_temperature;BMP_pressure;BME280_temperature;BME280_humidity;BME280_pressure;Samples;Min_cycle;Max_cycle;Signal;HPM_P1;HPM_P2
2023/12/26 00:04:02;;;;;;;0.70;0.70;;;;;;;;;;10374743;28;20587;-67
2023/12/26 00:09:02;;;;;;;0.70;0.70;;;;;;;;;;10374885;28;20201;-67
2023/12/26 00:14:03;;;;;;;1.37;0.70;;;;;;;;;;10374254;28;20314;-66
2023/12/26 00:19:03;;;;;;;0.63;0.63;;;;;;;;;;10372796;28;20200;-67
2023/12/26 00:24:03;;;;;;;0.60;0.60;;;;;;;;;;10374084;28;20398;-66
2023/12/26 00:29:03;;;;;;;0.50;0.50;;;;;;;;;;10373964;28;20216;-66
2023/12/26 00:34:03;;;;;;;1.03;0.50;;;;;;;;;;10373839;28;20664;-66
2023/12/26 00:39:04;;;;;;;0.60;0.60;;;;;;;;;;10371782;28;20185;-67
2023/12/26 00:44:04;;;;;;;0.60;0.60;;;;;;;;;;10373419;28;20236;-67
2023/12/26 00:49:04;;;;;;;0.50;0.50;;;;;;;;;;10373387;28;20428;-66
2023/12/26 00:54:05;;;;;;;0.50;0.50;;;;;;;;;;10372080;28;20620;-67
2023/12/26 00:59:05;;;;;;;0.60;0.60;;;;;;;;;;10371381;28;20205;-67
2023/12/26 01:04:05;;;;;;;0.50;0.50;;;;;;;;;;10371007;28;20221;-67
2023/12/26 01:09:06;;;;;;;0.50;0.50;;;;;;;;;;10371471;28;20189;-67
2023/12/26 01:14:06;;;;;;;0.50;0.50;;;;;;;;;;10371996;28;20225;-67
2023/12/26 01:19:06;;;;;;;0.50;0.50;;;;;;;;;;10370504;28;20652;-67
2023/12/26 01:24:06;;;;;;;0.50;0.50;;;;;;;;;;10371608;28;20267;-67
2023/12/26 01:29:07;;;;;;;0.50;0.50;;;;;;;;;;10371550;28;20206;-67
2023/12/26 01:34:07;;;;;;;0.50;0.50;;;;;;;;;;10369893;28;20214;-67
2023/12/26 01:39:08;;;;;;;0.50;0.50;;;;;;;;;;10371103;28;20177;-66
2023/12/26 01:44:08;;;;;;;3.90;0.60;;;;;;;;;;10369722;28;20232;-67
2023/12/26 01:49:09;;;;;;;0.60;0.60;;;;;;;;;;10370917;28;20193;-67
2023/12/26 01:54:10;;;;;;;0.50;0.50;;;;;;;;;;10367643;28;20279;-67
2023/12/26 01:59:10;;;;;;;1.03;0.60;;;;;;;;;;10369701;28;20256;-67
2023/12/26 02:04:11;;;;;;;0.47;0.47;;;;;;;;;;10368543;28;20760;-66
2023/12/26 02:09:11;;;;;;;0.40;0.40;;;;;;;;;;10368940;28;20443;-68
2023/12/26 02:14:12;;;;;;;0.53;0.53;;;;;;;;;;10368153;28;20241;-67
2023/12/26 02:19:12;;;;;;;0.50;0.50;;;;;;;;;;10369359;28;20200;-67
2023/12/26 02:24:13;;;;;;;0.50;0.50;;;;;;;;;;10369013;28;20284;-68
2023/12/26 02:29:13;;;;;;;0.50;0.50;;;;;;;;;;10367713;28;20185;-67
2023/12/26 02:34:14;;;;;;;0.50;0.50;;;;;;;;;;10367192;28;20213;-67
2023/12/26 02:39:14;;;;;;;0.50;0.50;;;;;;;;;;10367964;28;20182;-68
2023/12/26 02:44:15;;;;;;;0.50;0.50;;;;;;;;;;10368421;28;20376;-67
2023/12/26 02:49:15;;;;;;;0.67;0.57;;;;;;;;;;10368705;28;20660;-68
2023/12/26 02:54:16;;;;;;;0.50;0.50;;;;;;;;;;10366617;28;20213;-68
2023/12/26 02:59:16;;;;;;;0.70;0.70;;;;;;;;;;10368327;28;20267;-68
2023/12/26 03:04:16;;;;;;;0.50;0.50;;;;;;;;;;10364677;28;20202;-67
2023/12/26 03:09:17;;;;;;;0.53;0.53;;;;;;;;;;10366077;28;20452;-67
2023/12/26 03:14:17;;;;;;;0.60;0.60;;;;;;;;;;10367208;28;20598;-67
2023/12/26 03:19:17;;;;;;;0.50;0.50;;;;;;;;;;10367671;28;20498;-68
2023/12/26 03:24:17;;;;;;;0.60;0.60;;;;;;;;;;10366506;28;21033;-68
2023/12/26 03:29:17;;;;;;;1.40;0.60;;;;;;;;;;10366150;28;20197;-68
2023/12/26 03:34:18;;;;;;;0.70;0.70;;;;;;;;;;10366014;28;20691;-68
2023/12/26 03:39:19;;;;;;;0.60;0.60;;;;;;;;;;10367884;28;20225;-67
2023/12/26 03:44:19;;;;;;;1.23;1.03;;;;;;;;;;10366916;28;20268;-67
2023/12/26 03:49:19;;;;;;;0.93;0.80;;;;;;;;;;10365893;28;20189;-68
2023/12/26 03:54:21;;;;;;;0.80;0.80;;;;;;;;;;10365961;28;20219;-67
2023/12/26 03:59:22;;;;;;;0.77;0.77;;;;;;;;;;10367191;28;20244;-67
2023/12/26 04:04:23;;;;;;;0.73;0.73;;;;;;;;;;10365837;28;20264;-67
2023/12/26 04:09:23;;;;;;;1.53;0.90;;;;;;;;;;10363804;28;20251;-67
2023/12/26 04:14:24;;;;;;;0.83;0.83;;;;;;;;;;10365596;28;20209;-67
2023/12/26 04:19:25;;;;;;;0.70;0.70;;;;;;;;;;10366689;28;20177;-67
2023/12/26 04:24:25;;;;;;;6.57;1.43;;;;;;;;;;10370336;28;20208;-67
2023/12/26 04:29:25;;;;;;;0.70;0.70;;;;;;;;;;10371038;28;20585;-67
2023/12/26 04:34:26;;;;;;;0.70;0.70;;;;;;;;;;10372207;28;20228;-67
2023/12/26 04:39:26;;;;;;;1.10;1.00;;;;;;;;;;10372473;28;20178;-67
2023/12/26 04:44:26;;;;;;;1.17;0.83;;;;;;;;;;10371033;28;20243;-67
2023/12/26 04:49:27;;;;;;;0.97;0.80;;;;;;;;;;10372085;28;20243;-67
2023/12/26 04:54:27;;;;;;;0.80;0.80;;;;;;;;;;10371681;28;20216;-67
2023/12/26 04:59:28;;;;;;;0.60;0.60;;;;;;;;;;10371526;28;20181;-67
2023/12/26 05:04:28;;;;;;;0.70;0.70;;;;;;;;;;10370297;28;20213;-67
2023/12/26 05:09:29;;;;;;;0.70;0.70;;;;;;;;;;10371126;28;20272;-66
2023/12/26 05:14:29;;;;;;;0.93;0.77;;;;;;;;;;10370861;28;20209;-67
2023/12/26 05:19:29;;;;;;;0.70;0.70;;;;;;;;;;10371999;28;20190;-67
2023/12/26 05:24:32;;;;;;;0.60;0.60;;;;;;;;;;10370396;28;20220;-67
2023/12/26 05:29:32;;;;;;;0.70;0.70;;;;;;;;;;10371658;28;20702;-67
2023/12/26 05:34:33;;;;;;;0.50;0.50;;;;;;;;;;10370320;28;20309;-67
2023/12/26 05:39:34;;;;;;;0.60;0.60;;;;;;;;;;10369951;28;20235;-67
2023/12/26 05:44:34;;;;;;;0.50;0.50;;;;;;;;;;10414525;23;20247;-70
2023/12/26 05:49:35;;;;;;;0.50;0.50;;;;;;;;;;10410491;28;20185;-70
2023/12/26 05:54:35;;;;;;;0.60;0.60;;;;;;;;;;10392374;28;20484;-70
2023/12/26 05:59:35;;;;;;;0.57;0.57;;;;;;;;;;10386234;28;20234;-70
2023/12/26 06:04:36;;;;;;;0.50;0.50;;;;;;;;;;10378897;28;20287;-69
2023/12/26 06:09:36;;;;;;;1.50;0.60;;;;;;;;;;10380402;28;20571;-70
2023/12/26 06:14:38;;;;;;;0.60;0.60;;;;;;;;;;10378129;28;20208;-70
2023/12/26 06:19:38;;;;;;;0.60;0.60;;;;;;;;;;10383041;28;20323;-69
2023/12/26 06:24:39;;;;;;;0.50;0.50;;;;;;;;;;10383828;28;20216;-69
2023/12/26 06:29:39;;;;;;;0.50;0.50;;;;;;;;;;10377875;28;20216;-69
2023/12/26 06:34:40;;;;;;;0.70;0.63;;;;;;;;;;10370558;28;20833;-69
2023/12/26 06:39:40;;;;;;;0.93;0.60;;;;;;;;;;10382551;28;20196;-69
2023/12/26 06:44:40;;;;;;;0.50;0.50;;;;;;;;;;10386486;28;20463;-69
2023/12/26 06:49:45;;;;;;;0.50;0.50;;;;;;;;;;10386500;28;20252;-69
2023/12/26 06:54:45;;;;;;;0.60;0.60;;;;;;;;;;10388170;28;20282;-69
2023/12/26 06:59:47;;;;;;;0.70;0.70;;;;;;;;;;10378672;28;20267;-69
2023/12/26 07:04:47;;;;;;;1.97;1.87;;;;;;;;;;10387513;28;20196;-69
2023/12/26 07:09:47;;;;;;;5.83;1.00;;;;;;;;;;10387485;28;20191;-69
2023/12/26 07:14:48;;;;;;;0.60;0.60;;;;;;;;;;10386928;28;20215;-69
2023/12/26 07:19:48;;;;;;;0.60;0.60;;;;;;;;;;10379024;28;20281;-69
2023/12/26 07:24:48;;;;;;;0.50;0.50;;;;;;;;;;10382317;28;20220;-69
2023/12/26 07:29:48;;;;;;;1.50;0.70;;;;;;;;;;10381042;28;20189;-70
2023/12/26 07:34:49;;;;;;;0.50;0.50;;;;;;;;;;10381795;28;21050;-69
2023/12/26 07:39:49;;;;;;;0.50;0.50;;;;;;;;;;10377715;28;20732;-69
2023/12/26 07:44:49;;;;;;;1.10;0.73;;;;;;;;;;10384881;28;20220;-69
2023/12/26 07:49:49;;;;;;;0.67;0.60;;;;;;;;;;10386196;28;20275;-69
2023/12/26 07:54:49;;;;;;;0.73;0.63;;;;;;;;;;10381323;28;20197;-68
2023/12/26 07:59:49;;;;;;;0.73;0.70;;;;;;;;;;10383320;28;20197;-69
2023/12/26 08:04:50;;;;;;;1.07;0.63;;;;;;;;;;10396127;28;20215;-69
2023/12/26 08:09:50;;;;;;;0.57;0.57;;;;;;;;;;10395614;28;20326;-68
2023/12/26 08:14:50;;;;;;;1.07;0.87;;;;;;;;;;10385905;28;20212;-69
2023/12/26 08:19:50;;;;;;;0.70;0.70;;;;;;;;;;10377966;28;20578;-68
2023/12/26 08:24:50;;;;;;;0.80;0.80;;;;;;;;;;10380225;28;20213;-67
2023/12/26 08:29:51;;;;;;;0.90;0.90;;;;;;;;;;10381770;28;20190;-68
2023/12/26 08:34:51;;;;;;;1.00;0.90;;;;;;;;;;10378509;28;20209;-68
2023/12/26 08:39:51;;;;;;;0.70;0.70;;;;;;;;;;10383998;28;20196;-69
2023/12/26 08:44:51;;;;;;;0.70;0.70;;;;;;;;;;10383572;28;20315;-69
2023/12/26 08:49:51;;;;;;;0.73;0.70;;;;;;;;;;10383843;28;20205;-69
2023/12/26 08:54:51;;;;;;;0.70;0.70;;;;;;;;;;10393044;28;20201;-69
2023/12/26 08:59:52;;;;;;;1.33;0.70;;;;;;;;;;10391972;28;20185;-70
2023/12/26 09:04:52;;;;;;;0.70;0.70;;;;;;;;;;10381995;28;20209;-69
2023/12/26 09:09:52;;;;;;;0.70;0.70;;;;;;;;;;10385443;28;20200;-69
2023/12/26 09:14:52;;;;;;;2.10;0.70;;;;;;;;;;10388324;28;20201;-69
2023/12/26 09:19:53;;;;;;;1.23;0.80;;;;;;;;;;10375867;28;20181;-69
2023/12/26 09:24:53;;;;;;;1.00;0.90;;;;;;;;;;10376179;28;20205;-69
2023/12/26 09:29:53;;;;;;;0.70;0.70;;;;;;;;;;10386292;28;20188;-69
2023/12/26 09:34:53;;;;;;;0.60;0.60;;;;;;;;;;10390634;28;20212;-69
2023/12/26 09:39:53;;;;;;;0.70;0.70;;;;;;;;;;10390337;28;20340;-69
2023/12/26 09:50:39;;;;;;;0.70;0.70;;;;;;;;;;10381775;28;20308;-69
2023/12/26 09:55:39;;;;;;;0.90;0.90;;;;;;;;;;10380852;28;20300;-69
2023/12/26 10:00:40;;;;;;;1.00;0.90;;;;;;;;;;10380772;28;20631;-70
2023/12/26 10:05:40;;;;;;;0.73;0.70;;;;;;;;;;10380657;28;20664;-69
2023/12/26 10:10:40;;;;;;;1.20;0.93;;;;;;;;;;10389957;28;20209;-70
2023/12/26 10:15:41;;;;;;;0.60;0.60;;;;;;;;;;10389077;28;20694;-69
2023/12/26 10:20:41;;;;;;;0.87;0.70;;;;;;;;;;10388316;28;20220;-69
2023/12/26 10:25:42;;;;;;;0.73;0.73;;;;;;;;;;10385749;28;20201;-69
2023/12/26 10:30:42;;;;;;;0.80;0.80;;;;;;;;;;10379614;28;20220;-69
2023/12/26 10:35:43;;;;;;;1.50;0.80;;;;;;;;;;10379608;28;20194;-69
2023/12/26 10:40:43;;;;;;;0.83;0.83;;;;;;;;;;10379372;28;20679;-70
2023/12/26 10:45:43;;;;;;;0.70;0.70;;;;;;;;;;10383981;28;20188;-68
2023/12/26 10:50:44;;;;;;;0.77;0.77;;;;;;;;;;10387788;28;20216;-69
2023/12/26 10:55:45;;;;;;;0.70;0.70;;;;;;;;;;10387421;28;20264;-69
2023/12/26 11:00:45;;;;;;;3.03;0.60;;;;;;;;;;10387654;28;20196;-70
2023/12/26 11:05:45;;;;;;;2.33;0.80;;;;;;;;;;10380270;28;20189;-69
2023/12/26 11:10:46;;;;;;;0.70;0.70;;;;;;;;;;10378862;28;20601;-69
2023/12/26 11:15:46;;;;;;;0.80;0.80;;;;;;;;;;10378711;28;20578;-68
2023/12/26 11:20:46;;;;;;;0.60;0.60;;;;;;;;;;10378590;28;20216;-69
2023/12/26 11:25:47;;;;;;;5.23;3.40;;;;;;;;;;10386951;28;20204;-70
2023/12/26 11:30:48;;;;;;;0.70;0.70;;;;;;;;;;10378122;28;20216;-69
2023/12/26 11:35:48;;;;;;;0.70;0.70;;;;;;;;;;10386466;28;20239;-69
2023/12/26 11:40:49;;;;;;;0.80;0.80;;;;;;;;;;10386483;28;20233;-69
2023/12/26 11:45:49;;;;;;;0.80;0.80;;;;;;;;;;10396396;28;21014;-69
2023/12/26 11:50:49;;;;;;;0.80;0.80;;;;;;;;;;10394514;28;20231;-68
2023/12/26 11:55:49;;;;;;;0.80;0.80;;;;;;;;;;10394506;28;20185;-70
2023/12/26 12:00:49;;;;;;;0.77;0.77;;;;;;;;;;10391118;28;20734;-71
2023/12/26 12:06:10;;;;;;;2.13;0.80;;;;;;;;;;10385742;28;20239;-70
2023/12/26 12:11:12;;;;;;;0.90;0.90;;;;;;;;;;10385484;28;20286;-71
2023/12/26 12:16:21;;;;;;;1.20;1.10;;;;;;;;;;10385592;28;20196;-70
2023/12/26 12:21:21;;;;;;;0.97;0.97;;;;;;;;;;10389016;28;20221;-70
2023/12/26 12:26:21;;;;;;;1.20;1.00;;;;;;;;;;10393319;28;20564;-70
2023/12/26 12:31:24;;;;;;;1.30;1.20;;;;;;;;;;10393371;28;20747;-70
2023/12/26 12:36:25;;;;;;;1.40;1.30;;;;;;;;;;10392898;28;20220;-69
2023/12/26 12:41:25;;;;;;;1.43;1.20;;;;;;;;;;10386945;28;20287;-70
2023/12/26 12:46:25;;;;;;;1.50;1.10;;;;;;;;;;10384018;28;20298;-70
2023/12/26 12:51:26;;;;;;;2.03;1.30;;;;;;;;;;10384204;28;20491;-69
2023/12/26 12:56:26;;;;;;;1.30;1.20;;;;;;;;;;10384186;28;20535;-70
2023/12/26 13:01:27;;;;;;;1.53;1.10;;;;;;;;;;10391174;28;20205;-70
2023/12/26 13:06:27;;;;;;;0.90;0.90;;;;;;;;;;10391957;28;20194;-69
2023/12/26 13:11:27;;;;;;;1.07;0.93;;;;;;;;;;10391461;28;20221;-70
2023/12/26 13:16:27;;;;;;;1.20;1.10;;;;;;;;;;10388034;28;20189;-69
2023/12/26 13:21:27;;;;;;;0.90;0.90;;;;;;;;;;10391117;28;20808;-70
2023/12/26 13:26:36;;;;;;;1.43;1.20;;;;;;;;;;10390968;28;20276;-69
2023/12/26 13:31:37;;;;;;;1.87;1.30;;;;;;;;;;10390780;28;20630;-69
2023/12/26 13:36:37;;;;;;;1.20;1.10;;;;;;;;;;10386621;28;20249;-69
2023/12/26 13:41:38;;;;;;;1.70;1.47;;;;;;;;;;10380364;28;20315;-69
2023/12/26 13:46:38;;;;;;;1.73;1.33;;;;;;;;;;10382344;28;20188;-70
2023/12/26 13:51:40;;;;;;;2.43;1.63;;;;;;;;;;10382362;28;20605;-70
2023/12/26 13:56:40;;;;;;;4.03;1.97;;;;;;;;;;10389180;28;20201;-70
2023/12/26 14:01:40;;;;;;;1.30;1.20;;;;;;;;;;10389525;28;20215;-70
2023/12/26 14:06:40;;;;;;;1.27;1.17;;;;;;;;;;10389418;28;20188;-70
2023/12/26 14:11:41;;;;;;;1.53;1.40;;;;;;;;;;10389066;28;21021;-69
2023/12/26 14:16:41;;;;;;;2.20;1.43;;;;;;;;;;10385775;28;20193;-70
2023/12/26 14:21:41;;;;;;;1.47;1.10;;;;;;;;;;10390053;23;20258;-68
2023/12/26 14:26:42;;;;;;;2.97;1.23;;;;;;;;;;10324324;28;20200;-68
2023/12/26 14:31:42;;;;;;;3.80;1.47;;;;;;;;;;10325540;28;20221;-68
2023/12/26 14:36:42;;;;;;;2.33;1.20;;;;;;;;;;10324338;28;20201;-68
2023/12/26 14:41:42;;;;;;;3.60;1.50;;;;;;;;;;10319766;28;20210;-68
2023/12/26 14:46:42;;;;;;;2.30;1.50;;;;;;;;;;10325723;28;20186;-67
2023/12/26 14:51:42;;;;;;;1.57;1.37;;;;;;;;;;10325983;28;20225;-67
2023/12/26 14:56:43;;;;;;;3.63;1.40;;;;;;;;;;10327407;28;20553;-68
2023/12/26 15:01:44;;;;;;;4.70;1.63;;;;;;;;;;10323109;28;20230;-68
2023/12/26 15:06:44;;;;;;;8.00;3.50;;;;;;;;;;10326841;28;20252;-68
2023/12/26 15:11:44;;;;;;;3.30;1.17;;;;;;;;;;10321834;28;20217;-67
2023/12/26 15:16:44;;;;;;;1.63;1.20;;;;;;;;;;10317106;28;20194;-67
2023/12/26 15:21:44;;;;;;;5.37;1.90;;;;;;;;;;10323048;28;20644;-67
2023/12/26 15:26:45;;;;;;;4.10;1.90;;;;;;;;;;10327349;28;20205;-67
2023/12/26 15:31:45;;;;;;;3.50;1.77;;;;;;;;;;10326481;28;20217;-67
2023/12/26 15:36:45;;;;;;;2.83;1.77;;;;;;;;;;10326481;28;21023;-67
2023/12/26 15:41:46;;;;;;;3.87;1.63;;;;;;;;;;10322429;28;20272;-68
2023/12/26 15:46:46;;;;;;;5.80;2.13;;;;;;;;;;10326323;28;20572;-67
2023/12/26 15:51:46;;;;;;;1.93;1.40;;;;;;;;;;10326095;28;20218;-67
2023/12/26 15:56:48;;;;;;;3.07;1.60;;;;;;;;;;10321665;28;20711;-67
2023/12/26 16:01:48;;;;;;;4.20;1.53;;;;;;;;;;10318585;28;20309;-67
2023/12/26 16:06:50;;;;;;;5.87;1.77;;;;;;;;;;10322314;28;20240;-67
2023/12/26 16:11:51;;;;;;;2.43;1.70;;;;;;;;;;10321799;28;20264;-67
2023/12/26 16:16:51;;;;;;;4.93;2.50;;;;;;;;;;10316569;28;20204;-67
2023/12/26 16:21:51;;;;;;;3.00;2.20;;;;;;;;;;10328599;28;20240;-67
2023/12/26 16:26:51;;;;;;;7.77;2.87;;;;;;;;;;10326102;28;20193;-67
2023/12/26 16:31:51;;;;;;;24.37;10.27;;;;;;;;;;10329122;28;20271;-67
2023/12/26 16:36:51;;;;;;;6.10;2.20;;;;;;;;;;10324178;28;20178;-67
2023/12/26 16:42:00;;;;;;;6.10;2.23;;;;;;;;;;10329013;28;20301;-67
2023/12/26 16:47:00;;;;;;;5.80;2.13;;;;;;;;;;10328936;28;20198;-67
2023/12/26 16:52:00;;;;;;;6.70;2.17;;;;;;;;;;10325731;28;20229;-68
2023/12/26 16:57:01;;;;;;;4.27;2.20;;;;;;;;;;10325080;28;20189;-67
2023/12/26 17:02:01;;;;;;;6.50;3.00;;;;;;;;;;10311277;28;20206;-67
2023/12/26 17:07:02;;;;;;;5.97;1.97;;;;;;;;;;10329136;28;20186;-67
2023/12/26 17:12:02;;;;;;;5.87;2.17;;;;;;;;;;10327189;28;20249;-68
2023/12/26 17:17:03;;;;;;;3.70;2.20;;;;;;;;;;10324347;28;20260;-68
2023/12/26 17:22:03;;;;;;;5.43;1.80;;;;;;;;;;10327148;28;20643;-68
2023/12/26 17:27:04;;;;;;;2.93;1.90;;;;;;;;;;10326828;28;20198;-68
2023/12/26 17:32:04;;;;;;;5.47;2.07;;;;;;;;;;10321572;28;20226;-68
2023/12/26 17:37:05;;;;;;;4.07;2.47;;;;;;;;;;10324770;28;20554;-68
2023/12/26 17:42:05;;;;;;;6.80;3.80;;;;;;;;;;10326293;28;20551;-68
2023/12/26 17:47:06;;;;;;;6.03;2.50;;;;;;;;;;10326232;28;20557;-68
2023/12/26 17:52:06;;;;;;;5.50;2.60;;;;;;;;;;10325394;28;20610;-68
2023/12/26 17:57:06;;;;;;;7.97;3.83;;;;;;;;;;10320860;28;20576;-68
2023/12/26 18:02:06;;;;;;;4.87;2.10;;;;;;;;;;10312651;28;20222;-69
2023/12/26 18:07:06;;;;;;;3.53;1.92;;;;;;;;;;10322240;28;20756;-68
2023/12/26 18:12:07;;;;;;;5.53;2.40;;;;;;;;;;10324235;28;20228;-68
2023/12/26 18:17:07;;;;;;;5.90;2.27;;;;;;;;;;10324663;28;20196;-67
2023/12/26 18:22:07;;;;;;;4.93;2.17;;;;;;;;;;10324181;28;21183;-68
2023/12/26 18:27:07;;;;;;;5.13;2.60;;;;;;;;;;10322265;28;20214;-68
2023/12/26 18:32:07;;;;;;;5.30;2.43;;;;;;;;;;10318479;28;20237;-68
2023/12/26 18:37:07;;;;;;;6.37;2.63;;;;;;;;;;10326844;28;20252;-68
2023/12/26 18:42:10;;;;;;;5.50;2.43;;;;;;;;;;10326760;28;20221;-68
2023/12/26 18:47:10;;;;;;;5.70;3.37;;;;;;;;;;10326740;28;20197;-68
2023/12/26 18:52:11;;;;;;;7.60;2.07;;;;;;;;;;10322989;28;20885;-67
2023/12/26 18:57:11;;;;;;;5.23;3.13;;;;;;;;;;10322325;28;20186;-67
2023/12/26 19:02:11;;;;;;;7.30;3.10;;;;;;;;;;10319606;28;20218;-67
2023/12/26 19:07:12;;;;;;;7.77;3.30;;;;;;;;;;10321365;28;20276;-68
2023/12/26 19:12:13;;;;;;;5.20;3.20;;;;;;;;;;10312457;28;20222;-68
2023/12/26 19:17:15;;;;;;;8.37;2.63;;;;;;;;;;10324112;28;20578;-67
2023/12/26 19:22:15;;;;;;;8.30;2.40;;;;;;;;;;10326103;28;20245;-68
2023/12/26 19:27:16;;;;;;;4.27;2.33;;;;;;;;;;10322140;28;20202;-67
2023/12/26 19:32:16;;;;;;;7.63;2.77;;;;;;;;;;10324344;28;20220;-67
2023/12/26 19:37:16;;;;;;;5.10;2.27;;;;;;;;;;10326256;28;20668;-68
2023/12/26 19:42:16;;;;;;;3.10;2.07;;;;;;;;;;10325689;28;20218;-67
2023/12/26 19:47:16;;;;;;;6.33;2.50;;;;;;;;;;10320985;28;20198;-67
2023/12/26 19:52:16;;;;;;;5.53;1.90;;;;;;;;;;10325372;28;20583;-67
2023/12/26 19:57:17;;;;;;;8.17;1.90;;;;;;;;;;10333765;28;20201;-68
2023/12/26 20:02:17;;;;;;;5.13;1.83;;;;;;;;;;10333440;28;20228;-68
2023/12/26 20:07:18;;;;;;;5.87;1.90;;;;;;;;;;10321729;28;20204;-67
2023/12/26 20:12:18;;;;;;;7.27;1.70;;;;;;;;;;10325808;28;20228;-68
2023/12/26 20:17:18;;;;;;;3.57;1.60;;;;;;;;;;10330973;28;20235;-69
2023/12/26 20:22:18;;;;;;;7.30;2.10;;;;;;;;;;10332300;28;20269;-69
2023/12/26 20:27:19;;;;;;;3.43;1.33;;;;;;;;;;10328606;28;20734;-69
2023/12/26 20:32:19;;;;;;;5.80;1.80;;;;;;;;;;10332195;28;20613;-67
2023/12/26 20:37:19;;;;;;;5.27;1.90;;;;;;;;;;10332091;28;20202;-67
2023/12/26 20:42:19;;;;;;;7.67;2.10;;;;;;;;;;10328310;28;20206;-67
2023/12/26 20:47:20;;;;;;;4.67;1.40;;;;;;;;;;10331726;28;20255;-67
2023/12/26 20:52:20;;;;;;;6.03;1.53;;;;;;;;;;10331996;28;20865;-67
2023/12/26 20:57:20;;;;;;;5.13;1.50;;;;;;;;;;10331315;28;20800;-67
2023/12/26 21:02:21;;;;;;;6.27;2.00;;;;;;;;;;10327388;28;20214;-67
2023/12/26 21:07:21;;;;;;;3.70;1.40;;;;;;;;;;10328340;28;20179;-68
2023/12/26 21:12:21;;;;;;;10.00;1.90;;;;;;;;;;10330689;28;20217;-67
2023/12/26 21:17:22;;;;;;;10.80;1.73;;;;;;;;;;10330892;28;20198;-68
2023/12/26 21:22:22;;;;;;;5.77;1.90;;;;;;;;;;10326319;28;20292;-68
2023/12/26 21:27:22;;;;;;;5.47;1.80;;;;;;;;;;10331039;28;20210;-68
2023/12/26 21:32:22;;;;;;;7.17;1.90;;;;;;;;;;10330604;28;20222;-68
2023/12/26 21:37:22;;;;;;;5.60;2.20;;;;;;;;;;10322264;28;20198;-67
2023/12/26 21:42:23;;;;;;;4.63;1.57;;;;;;;;;;10326410;28;20221;-67
2023/12/26 21:47:24;;;;;;;6.30;1.70;;;;;;;;;;10329873;28;20285;-68
2023/12/26 21:52:24;;;;;;;4.63;1.70;;;;;;;;;;10329676;28;20292;-67
2023/12/26 21:57:25;;;;;;;6.30;2.27;;;;;;;;;;10328574;28;20190;-68
2023/12/26 22:02:25;;;;;;;8.30;1.87;;;;;;;;;;10326799;28;20220;-67
2023/12/26 22:07:25;;;;;;;6.47;1.80;;;;;;;;;;10329138;28;20202;-68
2023/12/26 22:12:26;;;;;;;3.27;1.60;;;;;;;;;;10329646;28;20214;-67
2023/12/26 22:17:26;;;;;;;7.70;1.90;;;;;;;;;;10324962;28;20513;-67
2023/12/26 22:22:26;;;;;;;3.43;1.53;;;;;;;;;;10329176;28;20234;-68
2023/12/26 22:27:27;;;;;;;6.43;1.90;;;;;;;;;;10328895;28;20198;-68
2023/12/26 22:32:27;;;;;;;5.70;2.10;;;;;;;;;;10328791;28;20575;-68
2023/12/26 22:37:28;;;;;;;3.93;1.77;;;;;;;;;;10325069;28;20205;-68
2023/12/26 22:42:28;;;;;;;4.27;1.90;;;;;;;;;;10328538;28;20213;-68
2023/12/26 22:47:29;;;;;;;7.10;2.00;;;;;;;;;;10328594;28;20240;-68
2023/12/26 22:52:29;;;;;;;10.10;1.90;;;;;;;;;;10328243;28;20228;-67
2023/12/26 22:57:31;;;;;;;5.30;1.60;;;;;;;;;;10324491;28;20695;-68
2023/12/26 23:02:31;;;;;;;6.40;2.03;;;;;;;;;;10327722;28;20240;-68
2023/12/26 23:07:31;;;;;;;8.10;1.70;;;;;;;;;;10327895;28;20198;-68
2023/12/26 23:12:31;;;;;;;6.30;1.80;;;;;;;;;;10327530;28;20235;-68
2023/12/26 23:17:31;;;;;;;10.43;1.73;;;;;;;;;;10323573;28;20201;-68
2023/12/26 23:22:31;;;;;;;4.47;1.80;;;;;;;;;;10327481;28;20261;-68
2023/12/26 23:27:32;;;;;;;5.57;1.77;;;;;;;;;;10326964;28;20648;-68
2023/12/26 23:32:32;;;;;;;5.63;1.67;;;;;;;;;;10325358;28;20222;-68
2023/12/26 23:37:32;;;;;;;7.83;1.80;;;;;;;;;;10324957;28;20221;-68
2023/12/26 23:42:34;;;;;;;7.13;2.10;;;;;;;;;;10327006;28;20643;-68
2023/12/26 23:47:34;;;;;;;6.10;2.07;;;;;;;;;;10327219;28;20190;-68
2023/12/26 23:52:40;;;;;;;6.90;1.97;;;;;;;;;;10322906;28;20218;-68
2023/12/26 23:57:40;;;;;;;5.03;1.90;;;;;;;;;;10327083;28;20217;-68
